Time;durP1;ratioP1;P1;durP2;ratioP2;P2;SDS_P1;SDS_P2;PMS_P1;PMS_P2;Temp;Humidity;BMP_temperature;BMP_pressure;BME280_temperature;BME280_humidity;BME280_pressure;Samples;Min_cycle;Max_cycle;Signal;HPM_P1;HPM_P2
2022/03/02 00:01:00;;;;;;;6.13;3.38;;;;;;;5.60;78.36;102135.19;4988688;28;20432;-73
2022/03/02 00:03:26;;;;;;;9.00;3.15;;;;;;;5.59;78.68;102144.28;4983330;28;20515;-74
2022/03/02 00:05:51;;;;;;;7.57;2.97;;;;;;;5.59;78.33;102149.63;4990526;28;20034;-75
2022/03/02 00:08:17;;;;;;;9.35;2.60;;;;;;;5.57;78.87;102135.75;4991321;28;20031;-75
2022/03/02 00:10:42;;;;;;;5.60;2.72;;;;;;;5.55;78.99;102137.91;4991531;28;20029;-75
2022/03/02 00:13:08;;;;;;;5.95;2.58;;;;;;;5.54;78.90;102130.97;4984434;28;20070;-75
2022/03/02 00:15:33;;;;;;;6.32;3.15;;;;;;;5.47;79.26;102136.66;4967865;28;20408;-75
2022/03/02 00:17:59;;;;;;;10.18;3.25;;;;;;;5.44;79.60;102126.53;4990748;28;20125;-75
2022/03/02 00:20:24;;;;;;;6.68;2.65;;;;;;;5.44;79.54;102142.56;4974257;28;20030;-75
2022/03/02 00:22:52;;;;;;;7.65;3.20;;;;;;;5.43;78.95;102140.97;4989512;28;20041;-75
2022/03/02 00:25:19;;;;;;;8.05;2.92;;;;;;;5.41;79.35;102153.00;4971512;28;20042;-75
2022/03/02 00:27:44;;;;;;;10.63;2.97;;;;;;;5.42;79.26;102138.56;4988935;28;20466;-73
2022/03/02 00:30:10;;;;;;;7.65;2.92;;;;;;;5.41;79.42;102147.69;4994175;28;20031;-73
2022/03/02 00:32:36;;;;;;;4.97;2.53;;;;;;;5.38;79.70;102148.25;4968439;28;20042;-73
2022/03/02 00:35:23;;;;;;;6.30;2.75;;;;;;;5.40;79.78;102154.09;4981781;28;20584;-73
2022/03/02 00:37:48;;;;;;;6.13;2.97;;;;;;;5.37;80.15;102147.44;4990187;28;20052;-73
2022/03/02 00:40:14;;;;;;;8.55;2.85;;;;;;;5.36;80.74;102151.19;4988003;28;20052;-74
2022/03/02 00:42:39;;;;;;;7.88;3.05;;;;;;;5.39;80.24;102145.28;4986539;28;20454;-74
2022/03/02 00:45:05;;;;;;;10.23;3.88;;;;;;;5.34;79.80;102137.31;4989293;28;20038;-74
2022/03/02 00:47:31;;;;;;;6.80;2.97;;;;;;;5.29;80.55;102144.59;4989890;28;20037;-74
2022/03/02 00:49:57;;;;;;;8.57;3.28;;;;;;;5.26;80.16;102137.94;4989409;28;20511;-74
2022/03/02 00:52:23;;;;;;;10.50;3.10;;;;;;;5.26;80.96;102137.94;4986847;28;20042;-74
2022/03/02 00:54:48;;;;;;;6.97;2.92;;;;;;;5.26;80.86;102126.47;4990352;28;20070;-74
2022/03/02 00:57:14;;;;;;;10.82;3.22;;;;;;;5.26;80.96;102119.25;4990714;28;20664;-74
2022/03/02 00:59:39;;;;;;;5.78;2.95;;;;;;;5.24;81.46;102129.44;4989727;28;20109;-74
2022/03/02 01:02:05;;;;;;;10.20;3.30;;;;;;;5.23;81.27;102129.69;4988901;28;20042;-75
2022/03/02 01:04:30;;;;;;;8.13;3.20;;;;;;;5.22;80.98;102120.09;4993841;28;20040;-75
2022/03/02 01:06:56;;;;;;;8.27;2.75;;;;;;;5.23;81.18;102121.69;4994821;28;20035;-75
2022/03/02 01:09:21;;;;;;;7.13;3.10;;;;;;;5.24;81.18;102118.75;4993146;28;20034;-75
2022/03/02 01:11:47;;;;;;;4.30;2.67;;;;;;;5.26;81.56;102113.13;4993754;28;20122;-75
2022/03/02 01:14:12;;;;;;;6.82;2.85;;;;;;;5.23;81.82;102119.81;4979196;28;20040;-75
2022/03/02 01:16:38;;;;;;;4.40;2.20;;;;;;;5.19;81.24;102115.31;4994255;28;20034;-75
2022/03/02 01:19:04;;;;;;;5.40;2.92;;;;;;;5.14;81.94;102118.84;4992979;28;20459;-75
2022/03/02 01:21:29;;;;;;;5.80;2.75;;;;;;;5.11;82.34;102115.94;4993371;28;20027;-75
2022/03/02 01:23:56;;;;;;;7.05;2.47;;;;;;;5.11;82.81;102126.63;4991631;28;20380;-75
2022/03/02 01:26:24;;;;;;;8.15;3.25;;;;;;;5.12;83.01;102117.53;4993237;28;20483;-75
2022/03/02 01:28:51;;;;;;;3.85;2.25;;;;;;;5.05;83.43;102111.72;4976164;28;20042;-75
2022/03/02 01:31:16;;;;;;;7.55;3.22;;;;;;;4.98;83.17;102112.03;4977704;28;20034;-74
2022/03/02 01:33:41;;;;;;;5.07;2.58;;;;;;;4.98;83.10;102117.38;4983910;28;20065;-74
2022/03/02 01:36:07;;;;;;;8.90;3.53;;;;;;;4.98;83.64;102109.38;4989199;28;20030;-74
2022/03/02 01:38:32;;;;;;;6.35;3.20;;;;;;;5.00;83.46;102115.22;4989014;28;20034;-74
2022/03/02 01:40:58;;;;;;;7.05;2.90;;;;;;;5.03;82.53;102108.53;4978215;28;20018;-74
2022/03/02 01:43:27;;;;;;;8.63;3.95;;;;;;;5.04;83.20;102118.13;4993435;28;20513;-74
2022/03/02 01:45:53;;;;;;;10.48;3.45;;;;;;;5.01;82.69;102111.50;4993922;28;20042;-75
2022/03/02 01:48:18;;;;;;;9.43;3.65;;;;;;;5.00;82.77;102111.75;4982548;28;20030;-75
2022/03/02 01:50:44;;;;;;;12.65;4.13;;;;;;;4.96;82.53;102108.06;4992164;28;20395;-74
2022/03/02 01:53:09;;;;;;;9.07;3.60;;;;;;;4.95;82.48;102109.94;4991349;28;20073;-75
2022/03/02 01:55:35;;;;;;;7.43;3.45;;;;;;;4.94;82.36;102096.88;4993388;28;20034;-75
2022/03/02 01:58:00;;;;;;;9.80;3.45;;;;;;;4.95;82.47;102090.47;4981819;28;20049;-74
2022/03/02 02:00:27;;;;;;;14.00;4.15;;;;;;;4.96;82.44;102084.84;4972389;28;20038;-74
2022/03/02 02:02:53;;;;;;;6.85;3.58;;;;;;;4.95;82.68;102075.25;5001348;28;20038;-74
2022/03/02 02:05:19;;;;;;;10.43;4.18;;;;;;;4.96;82.67;102079.50;4993413;28;20068;-75
2022/03/02 02:07:44;;;;;;;8.35;3.58;;;;;;;4.95;82.75;102064.59;4975990;28;20472;-75
2022/03/02 02:10:10;;;;;;;8.90;3.50;;;;;;;4.92;82.61;102067.78;4992831;28;20034;-74
2022/03/02 02:12:36;;;;;;;7.05;3.50;;;;;;;4.93;82.20;102066.72;4968110;28;20042;-75
2022/03/02 02:15:04;;;;;;;8.88;3.70;;;;;;;4.94;82.53;102062.97;4986384;28;20038;-74
2022/03/02 02:17:30;;;;;;;9.48;3.03;;;;;;;4.92;82.04;102057.13;4973785;28;20479;-74
2022/03/02 02:19:55;;;;;;;6.22;3.13;;;;;;;4.91;81.80;102063.56;4992100;28;20085;-74
2022/03/02 02:22:20;;;;;;;14.88;4.05;;;;;;;4.87;81.93;102067.84;4993255;28;20053;-74
2022/03/02 02:24:46;;;;;;;7.70;3.63;;;;;;;4.83;81.45;102064.16;4993383;28;20407;-74
2022/03/02 02:27:14;;;;;;;10.95;3.95;;;;;;;4.85;81.39;102066.53;4993044;28;20026;-74
2022/03/02 02:29:42;;;;;;;9.40;3.35;;;;;;;4.86;81.59;102063.56;4989857;28;20034;-74
2022/03/02 02:32:07;;;;;;;8.27;3.65;;;;;;;4.85;81.06;102074.53;4993508;28;20168;-74
2022/03/02 02:34:33;;;;;;;9.73;3.45;;;;;;;4.85;81.53;102067.34;4993845;28;20122;-74
2022/03/02 02:36:59;;;;;;;10.35;3.80;;;;;;;4.82;81.63;102069.78;4993069;28;20026;-74
2022/03/02 02:39:25;;;;;;;10.05;3.63;;;;;;;4.81;80.96;102068.97;4989671;28;20049;-74
2022/03/02 02:41:51;;;;;;;9.65;3.90;;;;;;;4.84;81.06;102075.63;4993545;28;20121;-74
2022/03/02 02:44:16;;;;;;;7.70;3.55;;;;;;;4.86;80.91;102068.13;4994209;28;20041;-74
2022/03/02 02:46:43;;;;;;;7.07;3.63;;;;;;;4.86;80.66;102060.13;4973513;28;20038;-74
2022/03/02 02:49:09;;;;;;;7.10;3.75;;;;;;;4.84;80.19;102056.94;4987950;28;20101;-74
2022/03/02 02:51:34;;;;;;;6.78;3.13;;;;;;;4.82;80.23;102053.78;4989238;28;20122;-74
2022/03/02 02:54:02;;;;;;;7.78;3.58;;;;;;;4.82;80.77;102061.78;4992277;28;20516;-75
2022/03/02 02:56:27;;;;;;;11.20;3.83;;;;;;;4.80;80.79;102054.03;4977926;28;20042;-74
2022/03/02 02:58:52;;;;;;;8.52;3.70;;;;;;;4.76;80.22;102052.22;4991156;28;20026;-75
2022/03/02 03:01:18;;;;;;;8.32;3.35;;;;;;;4.76;79.82;102057.56;4992184;28;20033;-74
2022/03/02 03:03:43;;;;;;;12.00;3.58;;;;;;;4.72;79.40;102044.00;4992415;28;20038;-74
2022/03/02 03:06:09;;;;;;;7.72;3.45;;;;;;;4.75;79.50;102037.28;4971867;28;20062;-74
2022/03/02 03:08:34;;;;;;;7.60;3.55;;;;;;;4.78;80.00;102042.84;4988114;28;20038;-74
2022/03/02 03:11:00;;;;;;;10.57;4.18;;;;;;;4.72;80.24;102030.66;4991847;28;20028;-74
2022/03/02 03:13:25;;;;;;;9.80;4.05;;;;;;;4.71;80.35;102026.38;4989599;28;20057;-74
2022/03/02 03:15:50;;;;;;;6.82;3.22;;;;;;;4.72;79.72;102022.66;4991951;28;20109;-74
2022/03/02 03:18:16;;;;;;;6.35;3.55;;;;;;;4.68;79.92;102029.63;4991368;28;20034;-74
2022/03/02 03:20:41;;;;;;;8.02;3.10;;;;;;;4.64;80.06;102025.13;4975526;28;20491;-74
2022/03/02 03:23:07;;;;;;;5.88;3.03;;;;;;;4.62;80.79;102013.94;4989211;28;20037;-75
2022/03/02 03:25:33;;;;;;;5.72;3.25;;;;;;;4.58;80.80;102006.50;4985827;28;20026;-74
2022/03/02 03:27:59;;;;;;;5.25;2.97;;;;;;;4.56;80.31;102015.84;4991397;28;20089;-74
2022/03/02 03:30:25;;;;;;;9.38;3.42;;;;;;;4.54;80.77;102010.00;4991030;28;20027;-74
2022/03/02 03:32:51;;;;;;;6.85;3.78;;;;;;;4.55;81.53;102012.38;4989515;28;20377;-75
2022/03/02 03:35:18;;;;;;;6.20;2.90;;;;;;;4.56;81.58;102007.84;4974712;28;20030;-74
2022/03/02 03:37:45;;;;;;;7.53;3.38;;;;;;;4.54;81.95;102013.47;4991491;28;20104;-75
2022/03/02 03:40:13;;;;;;;8.05;3.22;;;;;;;4.56;81.43;102019.31;4977020;28;20026;-75
2022/03/02 03:42:40;;;;;;;6.63;3.17;;;;;;;4.54;81.95;102016.13;4989128;28;20096;-74
2022/03/02 03:45:07;;;;;;;10.45;3.55;;;;;;;4.52;81.06;102012.16;4992108;28;20027;-74
2022/03/02 03:47:32;;;;;;;9.38;4.35;;;;;;;4.49;81.72;102013.50;4992087;28;20030;-74
2022/03/02 03:49:58;;;;;;;5.85;3.08;;;;;;;4.45;81.89;102007.13;4989229;28;20541;-74
2022/03/02 03:52:23;;;;;;;6.13;2.85;;;;;;;4.44;81.84;102007.41;4988999;28;20053;-73
2022/03/02 03:54:49;;;;;;;6.50;3.40;;;;;;;4.43;81.46;102009.28;4977953;28;20034;-73
2022/03/02 03:57:15;;;;;;;8.32;3.30;;;;;;;4.41;81.38;102011.44;5002618;28;20041;-73
2022/03/02 03:59:40;;;;;;;10.40;3.50;;;;;;;4.41;81.67;102010.66;4988880;28;20073;-73
2022/03/02 04:02:05;;;;;;;11.32;3.75;;;;;;;4.41;81.80;102016.00;4987315;28;20034;-73
2022/03/02 04:04:31;;;;;;;8.00;3.50;;;;;;;4.36;82.35;102005.34;4990567;28;20101;-73
2022/03/02 04:06:56;;;;;;;8.32;3.25;;;;;;;4.35;81.91;101998.44;4991205;28;20085;-73
2022/03/02 04:09:22;;;;;;;9.35;3.33;;;;;;;4.36;80.95;101995.47;4965805;28;20074;-73
2022/03/02 04:11:47;;;;;;;6.28;2.60;;;;;;;4.32;81.64;101996.31;4989829;28;20092;-72
2022/03/02 04:14:13;;;;;;;5.68;2.33;;;;;;;4.30;81.09;101998.47;4990437;28;20034;-73
2022/03/02 04:16:38;;;;;;;11.35;2.78;;;;;;;4.31;80.83;102005.41;5006041;28;20057;-73
2022/03/02 04:19:04;;;;;;;8.07;3.05;;;;;;;4.31;81.13;102000.06;4982492;28;20126;-73
2022/03/02 04:21:30;;;;;;;5.07;3.00;;;;;;;4.29;81.66;101999.56;4987292;28;20406;-73
2022/03/02 04:23:56;;;;;;;7.28;3.70;;;;;;;4.26;81.24;101992.91;4990761;28;20466;-73
2022/03/02 04:26:21;;;;;;;7.85;3.80;;;;;;;4.22;81.50;101986.53;4991225;28;20118;-73
2022/03/02 04:28:47;;;;;;;7.25;3.60;;;;;;;4.20;80.81;101988.69;4985301;28;20038;-73
2022/03/02 04:31:12;;;;;;;6.32;3.00;;;;;;;4.19;80.42;101978.31;4987553;28;20034;-73
2022/03/02 04:33:38;;;;;;;7.57;3.38;;;;;;;4.16;80.22;101974.31;4981892;28;20031;-73
2022/03/02 04:36:04;;;;;;;10.63;3.08;;;;;;;4.15;80.45;101977.25;4976086;28;20026;-73
2022/03/02 04:38:30;;;;;;;6.22;3.00;;;;;;;4.13;81.22;101976.75;4990084;28;20031;-73
2022/03/02 04:40:55;;;;;;;9.02;3.63;;;;;;;4.12;81.91;101975.94;4989304;28;20388;-73
2022/03/02 04:43:21;;;;;;;7.35;3.10;;;;;;;4.08;81.38;101966.13;4975469;28;20069;-73
2022/03/02 04:45:46;;;;;;;7.88;3.42;;;;;;;4.00;81.98;101966.72;4991925;28;20077;-73
2022/03/02 04:48:11;;;;;;;7.82;2.88;;;;;;;3.99;82.45;101965.94;4989422;28;20038;-73
2022/03/02 04:50:38;;;;;;;6.65;3.30;;;;;;;3.98;82.05;101966.22;4992914;28;20109;-73
2022/03/02 04:53:03;;;;;;;6.00;3.20;;;;;;;3.99;81.85;101963.25;4994838;28;20049;-73
2022/03/02 04:55:30;;;;;;;9.88;4.20;;;;;;;3.98;82.01;101959.03;4990183;28;20026;-73
2022/03/02 04:57:58;;;;;;;6.78;2.83;;;;;;;4.00;81.45;101964.88;5001082;28;20046;-73
2022/03/02 05:00:34;;;;;;;7.97;2.58;;;;;;;3.98;81.21;101960.88;4990586;28;20050;-73
2022/03/02 05:03:02;;;;;;;7.43;3.40;;;;;;;3.95;82.19;101972.88;4990482;28;20038;-73
2022/03/02 05:05:29;;;;;;;11.20;3.75;;;;;;;3.95;82.55;101975.53;4965085;28;20033;-73
2022/03/02 05:07:54;;;;;;;8.30;3.30;;;;;;;3.92;82.68;101969.97;4990216;28;20037;-72
2022/03/02 05:10:22;;;;;;;8.05;2.72;;;;;;;3.89;81.76;101965.22;4991354;28;20038;-72
2022/03/02 05:12:48;;;;;;;4.88;2.55;;;;;;;3.85;82.19;101964.19;4988321;28;20133;-73
2022/03/02 05:15:15;;;;;;;7.55;3.00;;;;;;;3.80;81.71;101972.19;4993926;28;20045;-74
2022/03/02 05:17:42;;;;;;;6.35;3.22;;;;;;;3.78;82.16;101974.31;4990467;28;20037;-74
2022/03/02 05:20:09;;;;;;;5.18;2.72;;;;;;;3.76;82.01;101971.94;4984089;28;20050;-74
2022/03/02 05:22:36;;;;;;;7.63;3.60;;;;;;;3.72;82.54;101970.13;4993195;28;20034;-74
2022/03/02 05:25:03;;;;;;;6.85;3.33;;;;;;;3.66;82.06;101970.16;4987461;28;20132;-74
2022/03/02 05:27:29;;;;;;;6.72;2.78;;;;;;;3.64;82.56;101969.63;4986232;28;20038;-74
2022/03/02 05:29:55;;;;;;;9.85;3.22;;;;;;;3.60;82.91;101971.25;4977839;28;20494;-74
2022/03/02 05:32:20;;;;;;;7.57;4.07;;;;;;;3.57;83.30;101973.66;4986879;28;20037;-74
2022/03/02 05:34:45;;;;;;;7.72;3.22;;;;;;;3.53;82.98;101968.09;4982890;28;20085;-74
2022/03/02 05:37:11;;;;;;;5.57;3.45;;;;;;;3.52;83.68;101965.72;4981976;28;20038;-73
2022/03/02 05:39:36;;;;;;;6.03;2.42;;;;;;;3.50;83.58;101965.97;4984822;28;20158;-73
2022/03/02 05:42:03;;;;;;;7.82;3.58;;;;;;;3.47;82.96;101969.19;4991149;28;20101;-73
2022/03/02 05:44:29;;;;;;;6.43;2.70;;;;;;;3.46;83.46;101962.28;4982159;28;20558;-73
2022/03/02 05:46:55;;;;;;;7.40;4.22;;;;;;;3.40;83.14;101963.38;4977355;28;20392;-73
2022/03/02 05:49:20;;;;;;;7.25;2.53;;;;;;;3.46;83.76;101964.97;4972430;28;20037;-73
2022/03/02 05:51:46;;;;;;;7.35;2.63;;;;;;;3.47;83.36;101966.53;4975779;28;20030;-73
2022/03/02 05:54:11;;;;;;;8.02;3.85;;;;;;;3.47;82.74;101960.41;4976108;28;20046;-73
2022/03/02 05:56:38;;;;;;;9.52;3.47;;;;;;;3.46;83.32;101964.97;4968566;28;20035;-72
2022/03/02 05:59:04;;;;;;;5.07;1.90;;;;;;;3.46;83.02;101970.28;4981399;28;20039;-73
2022/03/02 06:01:31;;;;;;;12.20;3.58;;;;;;;3.43;83.30;101964.69;4974355;28;20038;-73
2022/03/02 06:04:01;;;;;;;7.20;2.72;;;;;;;3.44;82.97;101966.28;4971645;28;20034;-74
2022/03/02 06:06:29;;;;;;;19.87;3.50;;;;;;;3.44;84.03;101969.75;4988380;28;20538;-74
2022/03/02 06:08:55;;;;;;;7.10;3.25;;;;;;;3.41;84.13;101966.81;4984936;28;20384;-74
2022/03/02 06:11:21;;;;;;;6.82;3.17;;;;;;;3.38;84.20;101976.16;4987851;28;20034;-74
2022/03/02 06:13:47;;;;;;;13.70;3.33;;;;;;;3.35;84.25;101982.03;4984814;28;20046;-74
2022/03/02 06:16:13;;;;;;;7.90;3.35;;;;;;;3.31;84.09;101978.31;4982868;28;20038;-75
2022/03/02 06:18:38;;;;;;;8.50;3.65;;;;;;;3.31;84.14;101975.66;4977308;28;20030;-75
2022/03/02 06:21:05;;;;;;;6.97;2.85;;;;;;;3.31;84.53;101975.66;4985017;28;20030;-74
2022/03/02 06:23:32;;;;;;;9.00;3.17;;;;;;;3.31;84.42;101985.53;4986543;28;20030;-73
2022/03/02 06:25:58;;;;;;;7.15;2.65;;;;;;;3.28;85.26;101984.19;4985364;28;20089;-73
2022/03/02 06:28:24;;;;;;;8.57;3.78;;;;;;;3.30;84.54;101979.41;4952103;28;20479;-73
2022/03/02 06:30:49;;;;;;;10.00;4.13;;;;;;;3.32;85.38;101979.94;4975845;28;20040;-73
2022/03/02 06:33:19;;;;;;;8.82;3.15;;;;;;;3.33;85.44;101973.50;4986926;28;20395;-73
2022/03/02 06:35:46;;;;;;;5.55;2.92;;;;;;;3.33;84.77;101976.19;4972284;28;20026;-73
2022/03/02 06:38:13;;;;;;;6.15;2.92;;;;;;;3.31;84.67;101970.31;4983570;28;20034;-72
2022/03/02 06:40:41;;;;;;;7.63;3.13;;;;;;;3.32;84.84;101971.94;4967882;28;20065;-73
2022/03/02 06:43:11;;;;;;;6.40;3.10;;;;;;;3.34;85.41;101974.31;4989145;28;20030;-73
2022/03/02 06:45:58;;;;;;;3.95;2.22;;;;;;;3.34;85.33;101967.13;4985375;28;20472;-73
2022/03/02 06:48:34;;;;;;;3.78;2.50;;;;;;;3.33;84.70;101973.50;4981736;28;20080;-73
2022/03/02 06:51:01;;;;;;;7.82;2.83;;;;;;;3.35;85.60;101975.91;4981949;28;20487;-74
2022/03/02 06:53:35;;;;;;;3.83;2.22;;;;;;;3.34;85.11;101991.09;4991624;28;20459;-73
2022/03/02 06:56:04;;;;;;;4.45;2.75;;;;;;;3.36;85.61;101994.28;4971399;28;20065;-73
2022/03/02 06:58:39;;;;;;;11.38;3.55;;;;;;;3.36;85.84;101991.63;4968159;28;20039;-73
2022/03/02 07:01:08;;;;;;;7.15;3.20;;;;;;;3.36;85.52;102002.25;4984103;28;20073;-73
2022/03/02 07:03:40;;;;;;;10.02;3.20;;;;;;;3.38;85.88;102008.13;4987895;28;20038;-73
2022/03/02 07:06:05;;;;;;;10.00;3.35;;;;;;;3.40;85.87;102003.31;4985407;28;20041;-72
2022/03/02 07:08:32;;;;;;;11.20;2.88;;;;;;;3.45;85.65;102003.28;4980858;28;20034;-73
2022/03/02 07:10:59;;;;;;;10.05;3.40;;;;;;;3.45;85.02;102005.13;4989977;28;20039;-73
2022/03/02 07:13:27;;;;;;;12.07;3.13;;;;;;;3.47;85.31;102006.47;4985024;28;20045;-73
2022/03/02 07:15:53;;;;;;;8.50;3.65;;;;;;;3.50;85.25;102005.13;4982896;28;20034;-72
2022/03/02 07:18:18;;;;;;;13.45;3.83;;;;;;;3.52;85.47;102003.00;4975986;28;20038;-73
2022/03/02 07:20:46;;;;;;;6.15;3.08;;;;;;;3.55;85.50;102005.91;4986208;28;20039;-72
2022/03/02 07:23:15;;;;;;;8.25;3.42;;;;;;;3.60;85.57;102015.75;4983332;28;20052;-72
2022/03/02 07:25:42;;;;;;;8.40;3.50;;;;;;;3.63;84.81;102025.84;4990833;28;20045;-72
2022/03/02 07:28:10;;;;;;;11.02;3.65;;;;;;;3.68;85.62;102004.47;4987299;28;20117;-72
2022/03/02 07:30:36;;;;;;;10.00;4.50;;;;;;;3.73;85.01;102009.00;4989606;28;20054;-72
2022/03/02 07:33:03;;;;;;;10.45;3.75;;;;;;;3.81;85.44;102011.09;4982817;28;20152;-72
2022/03/02 07:35:35;;;;;;;9.98;3.72;;;;;;;3.81;85.07;102009.22;4978998;28;20045;-72
2022/03/02 07:38:01;;;;;;;9.00;3.90;;;;;;;3.89;84.75;102008.63;4989779;28;20049;-72
2022/03/02 07:40:27;;;;;;;7.10;3.10;;;;;;;3.99;85.05;102002.47;4990436;28;20471;-72
2022/03/02 07:42:53;;;;;;;7.47;3.45;;;;;;;4.15;83.50;102011.91;4987177;28;20080;-73
2022/03/02 07:45:19;;;;;;;7.80;2.15;;;;;;;4.34;83.43;102016.28;4987053;28;20450;-72
2022/03/02 07:47:47;;;;;;;8.30;3.90;;;;;;;4.52;82.17;102012.16;4987676;28;20058;-74
2022/03/02 07:50:13;;;;;;;12.20;3.78;;;;;;;4.70;82.08;102011.47;4983232;28;20053;-74
2022/03/02 07:52:45;;;;;;;8.07;4.07;;;;;;;4.89;80.83;102015.00;4984862;28;20116;-75
2022/03/02 07:55:10;;;;;;;10.32;3.80;;;;;;;5.02;79.12;102006.31;4977189;28;20045;-74
2022/03/02 07:57:41;;;;;;;6.60;3.60;;;;;;;5.21;78.78;102012.50;4971623;28;20023;-72
2022/03/02 08:00:11;;;;;;;13.03;3.87;;;;;;;5.33;77.11;102010.22;4972446;28;20121;-73
2022/03/02 08:02:41;;;;;;;7.15;3.22;;;;;;;5.47;75.61;101995.09;4983745;28;20093;-72
2022/03/02 08:05:08;;;;;;;10.10;3.55;;;;;;;5.64;74.84;101999.13;4975483;28;20037;-72
2022/03/02 08:07:35;;;;;;;11.32;4.28;;;;;;;5.76;73.14;101989.63;4978655;28;20035;-73
2022/03/02 08:10:00;;;;;;;12.25;3.92;;;;;;;5.95;72.71;102001.13;4978748;28;20037;-73
2022/03/02 08:12:26;;;;;;;10.38;4.03;;;;;;;6.14;71.36;102009.13;4988451;28;20404;-73
2022/03/02 08:14:52;;;;;;;9.30;3.70;;;;;;;6.25;70.66;102005.22;4981044;28;20105;-73
2022/03/02 08:17:19;;;;;;;5.43;3.13;;;;;;;6.46;68.98;102003.00;4984356;28;20517;-73
2022/03/02 08:19:48;;;;;;;10.90;4.25;;;;;;;6.54;66.24;102005.81;4989113;28;20400;-72
2022/03/02 08:22:16;;;;;;;8.93;3.22;;;;;;;6.58;65.64;102009.44;4987711;28;20537;-73
2022/03/02 08:25:12;;;;;;;7.28;3.03;;;;;;;6.74;65.26;102004.63;4983616;28;20729;-72
2022/03/02 08:27:39;;;;;;;5.40;2.97;;;;;;;6.87;64.82;102004.66;4988729;28;20026;-72
2022/03/02 08:30:06;;;;;;;7.97;2.83;;;;;;;7.00;65.20;102011.91;4983703;28;20049;-73
2022/03/02 08:32:39;;;;;;;10.52;4.22;;;;;;;7.12;63.90;102012.19;4985976;28;20049;-72
2022/03/02 08:35:06;;;;;;;9.05;3.67;;;;;;;7.26;62.10;102021.03;4977896;28;20125;-73
2022/03/02 08:37:32;;;;;;;8.70;3.30;;;;;;;7.36;60.81;102027.28;4987261;28;20435;-72
2022/03/02 08:39:58;;;;;;;9.88;4.03;;;;;;;7.53;60.71;102033.63;4978643;28;20034;-72
2022/03/02 08:42:24;;;;;;;9.32;4.30;;;;;;;7.61;60.26;102029.44;4973656;28;20045;-72
2022/03/02 08:44:50;;;;;;;5.95;3.45;;;;;;;7.84;59.46;102018.47;4990429;28;20034;-72
2022/03/02 08:47:15;;;;;;;6.72;3.42;;;;;;;7.91;58.26;102013.50;4976244;28;20057;-73
2022/03/02 08:49:41;;;;;;;7.53;3.67;;;;;;;7.95;57.62;102024.41;4988766;28;20042;-73
2022/03/02 08:52:07;;;;;;;8.65;4.30;;;;;;;7.97;58.01;102022.22;4983706;28;20455;-73
2022/03/02 08:54:45;;;;;;;8.50;3.95;;;;;;;8.15;58.01;102013.97;4982133;28;20046;-73
2022/03/02 08:57:11;;;;;;;12.25;4.60;;;;;;;8.34;57.06;102013.06;4963509;28;20066;-74
2022/03/02 08:59:39;;;;;;;9.85;4.57;;;;;;;8.51;55.85;102013.97;4977853;28;20118;-73
2022/03/02 09:02:07;;;;;;;7.97;3.88;;;;;;;8.52;56.33;102015.53;4979023;28;20117;-73
2022/03/02 09:04:35;;;;;;;5.65;3.00;;;;;;;8.71;54.48;102016.09;4986561;28;20037;-73
2022/03/02 09:07:03;;;;;;;9.05;3.70;;;;;;;8.75;53.63;102019.00;4980828;28;20030;-73
2022/03/02 09:09:29;;;;;;;6.57;3.50;;;;;;;8.86;53.48;102023.78;4985406;28;20046;-72
2022/03/02 09:11:55;;;;;;;8.65;3.45;;;;;;;9.14;52.60;102026.28;4981861;28;20033;-73
2022/03/02 09:14:21;;;;;;;11.82;4.32;;;;;;;9.01;53.17;102039.50;4979087;28;20044;-72
2022/03/02 09:16:47;;;;;;;7.82;3.80;;;;;;;9.19;53.41;102032.28;4976090;28;20054;-73
2022/03/02 09:19:13;;;;;;;8.70;3.80;;;;;;;9.24;52.64;102036.72;4969247;28;20038;-72
2022/03/02 09:21:38;;;;;;;7.43;3.72;;;;;;;9.33;52.17;102040.25;4973050;28;20097;-72
2022/03/02 09:24:05;;;;;;;8.25;4.13;;;;;;;9.57;52.84;102038.72;4981202;28;20121;-73
2022/03/02 09:26:32;;;;;;;9.23;3.92;;;;;;;9.62;53.68;102043.94;4977800;28;20038;-72
2022/03/02 09:29:02;;;;;;;7.82;4.57;;;;;;;9.81;53.73;102032.91;4971544;28;20044;-72
2022/03/02 09:31:28;;;;;;;8.50;4.07;;;;;;;9.90;53.29;102036.41;4983202;28;20110;-72
2022/03/02 09:33:56;;;;;;;11.27;3.75;;;;;;;10.03;53.14;102016.59;4978489;28;20034;-72
2022/03/02 09:36:24;;;;;;;9.32;3.70;;;;;;;10.08;52.84;102016.47;4981212;28;20723;-72
2022/03/02 09:38:53;;;;;;;9.73;4.22;;;;;;;10.08;51.80;102011.06;4979314;28;20042;-72
2022/03/02 09:41:37;;;;;;;8.95;4.10;;;;;;;10.18;51.02;102015.38;4984813;28;20118;-72
2022/03/02 09:44:05;;;;;;;9.93;3.97;;;;;;;10.25;50.68;102016.47;4980800;28;20034;-72
2022/03/02 09:46:37;;;;;;;9.40;3.80;;;;;;;10.30;51.21;102019.00;4970191;28;20127;-72
2022/03/02 09:49:11;;;;;;;7.82;4.22;;;;;;;10.24;50.18;102006.81;4979286;28;20034;-72
2022/03/02 09:51:39;;;;;;;9.75;4.03;;;;;;;10.24;50.06;102014.09;4978358;28;20117;-72
2022/03/02 09:54:05;;;;;;;11.60;4.75;;;;;;;10.14;50.01;102004.47;4976281;28;20580;-72
2022/03/02 09:56:35;;;;;;;9.25;3.95;;;;;;;10.08;50.09;101999.50;4951393;28;20042;-71
2022/03/02 09:59:04;;;;;;;5.72;3.30;;;;;;;10.04;50.17;101999.38;4974790;28;20052;-72
2022/03/02 10:01:32;;;;;;;12.95;4.70;;;;;;;10.04;50.02;101997.44;4982197;28;20066;-71
2022/03/02 10:04:11;;;;;;;10.00;4.43;;;;;;;10.12;48.95;102006.69;4980174;28;20114;-72
2022/03/02 10:06:42;;;;;;;13.10;4.47;;;;;;;10.08;49.28;102008.38;4983210;28;20044;-72
2022/03/02 10:09:07;;;;;;;9.10;3.88;;;;;;;10.08;50.17;101996.81;4978677;28;20038;-72
2022/03/02 10:11:34;;;;;;;10.98;4.10;;;;;;;10.09;49.94;101991.13;4964838;28;20014;-72
2022/03/02 10:14:00;;;;;;;11.07;3.78;;;;;;;10.27;49.53;101989.22;4980297;28;20562;-72
2022/03/02 10:16:28;;;;;;;10.88;3.83;;;;;;;10.23;48.86;101985.59;4976156;28;20034;-71
2022/03/02 10:19:02;;;;;;;9.15;4.15;;;;;;;10.24;48.31;101979.88;4977821;28;20451;-72
2022/03/02 10:21:40;;;;;;;12.82;4.45;;;;;;;10.29;48.57;101971.66;4975877;28;20563;-71
2022/03/02 10:24:13;;;;;;;8.43;3.65;;;;;;;10.21;49.67;101972.47;4976715;28;20093;-71
2022/03/02 10:26:50;;;;;;;8.30;3.15;;;;;;;10.22;46.25;101967.88;4977578;28;20396;-72
2022/03/02 10:29:31;;;;;;;9.88;3.35;;;;;;;10.22;45.78;101960.56;4983071;28;20034;-72
2022/03/02 10:32:16;;;;;;;7.57;3.35;;;;;;;10.30;45.92;101969.75;4981373;28;20591;-71
2022/03/02 10:34:47;;;;;;;7.43;3.08;;;;;;;10.42;45.49;101964.47;4976638;28;20038;-72
2022/03/02 10:37:38;;;;;;;7.50;2.88;;;;;;;10.51;44.57;101971.44;4968981;28;20060;-72
2022/03/02 10:40:20;;;;;;;6.80;3.03;;;;;;;10.41;44.29;101963.72;4984853;28;20552;-72
2022/03/02 10:42:58;;;;;;;8.80;3.10;;;;;;;10.43;44.15;101971.47;4979516;28;20038;-72
2022/03/02 10:45:36;;;;;;;5.85;3.38;;;;;;;10.49;43.59;101960.19;4979267;28;20037;-71
2022/03/02 10:48:07;;;;;;;5.65;2.92;;;;;;;10.54;44.55;101965.41;4985281;28;20057;-71
2022/03/02 10:50:36;;;;;;;;;;;;;;;10.54;43.46;101967.31;4991431;28;20491;-72
2022/03/02 10:53:04;;;;;;;5.68;2.90;;;;;;;10.53;43.42;101960.34;4986441;28;19918;-72
2022/03/02 10:55:34;;;;;;;11.25;3.70;;;;;;;10.47;44.05;101959.72;4988672;28;20066;-71
2022/03/02 10:58:03;;;;;;;7.15;3.13;;;;;;;10.61;43.08;101965.69;4988182;28;20068;-71
2022/03/02 11:00:29;;;;;;;6.80;3.17;;;;;;;10.49;43.08;101965.56;4990620;28;20093;-72
2022/03/02 11:02:59;;;;;;;9.13;3.10;;;;;;;10.53;43.04;101957.66;4986904;28;20022;-72
2022/03/02 11:05:29;;;;;;;5.47;3.33;;;;;;;10.52;43.34;101956.06;4989802;28;20049;-72
2022/03/02 11:07:55;;;;;;;6.43;3.70;;;;;;;10.56;43.91;101948.94;4984222;28;20488;-72
2022/03/02 11:10:30;;;;;;;5.70;2.55;;;;;;;10.64;44.40;101951.59;4986546;28;20042;-72
2022/03/02 11:12:55;;;;;;;5.78;3.08;;;;;;;10.68;44.39;101954.44;4973489;28;20046;-72
2022/03/02 11:15:21;;;;;;;7.38;3.08;;;;;;;10.69;43.62;101954.09;4979106;28;20048;-72
2022/03/02 11:17:55;;;;;;;7.00;2.90;;;;;;;10.69;44.46;101947.91;4974353;28;20503;-72
2022/03/02 11:20:22;;;;;;;6.88;2.60;;;;;;;10.64;44.10;101938.13;4982686;28;20041;-72
2022/03/02 11:22:59;;;;;;;7.43;3.40;;;;;;;10.64;42.85;101945.41;4980023;28;20109;-71
2022/03/02 11:25:47;;;;;;;6.32;2.95;;;;;;;10.77;43.49;101934.44;4985383;28;20137;-72
2022/03/02 11:28:17;;;;;;;9.02;3.42;;;;;;;10.81;43.53;101927.28;4975517;28;20034;-71
2022/03/02 11:30:54;;;;;;;5.15;2.97;;;;;;;10.85;44.76;101938.19;4981207;28;20049;-71
2022/03/02 11:33:26;;;;;;;7.28;3.20;;;;;;;10.79;43.95;101931.41;4983401;28;20042;-71